Energy, Illinois
Current Conditions -  °F | °C
As of 4:50 AM on Friday 19 Dec 2014 (Local Time) from KMWA Reporting Station
Overcast Overcast  
Wind Chill: 32°   Ceiling: 3800
Heat Index: 32°   Visibility: 7mi
Dew Point: 28°   Wind: 3mph
Humidity: 87%   Direction: 10°N
Pressure: 30.27"   Gusts: NA
Location:  37.77°N, 89.03°W
Report Text: KMWA 191050Z AUTO 01003KT 7SM OVC038 M00/M02 A3027 RMK AO2
Loading
Personal Weather Stations






























Interactive Weather Map New forecast layout! Learn more

10-Day Weather Forecast

Advertisements
Track Severe Weather on mobile